• Join FlightAware (Why Join?)
  • Login
  • US Flag 
04:02AM EST


 

Airport Tracker/Info


-or-


 

Live Flight TrackerFlight Track Log ✈ FLG3735 ✈ 24-Apr-2013 ✈ KDTW - KALB

Flight Track Log - Related Links

Times and Time Zones

All times are in EDT time to prevent confusion due to time zone crossing. See the FLG3735 flight status page for this flight to view local times or setup timezone preferences in your user account.

Time Position Orientation Groundspeed Altitude Reporting Facility
EDT Latitude Longitude Course Direction KTS MPH feet Rate Location/Type
09:59PM 42.1967 -83.3547 94° East 172 198 1,600  Level FAA TRACON SMA TRACON (SMA)
09:59PM 42.1822 -83.3519 172° South 193 222 2,200 2,220 Climbing FAA TRACON SMA TRACON (SMA)
10:00PM 42.1611 -83.3464 169° South 209 241 3,100 2,520 Climbing FAA TRACON SMA TRACON (SMA)
10:00PM 42.1383 -83.3419 172° South 233 268 3,900 1,860 Climbing FAA TRACON SMA TRACON (SMA)
10:00PM 42.1192 -83.3394 174° South 251 289 4,400 1,920 Climbing FAA TRACON SMA TRACON (SMA)
10:01PM 42.0964 -83.3367 175° South 264 304 5,200 3,180 Climbing FAA TRACON SMA TRACON (SMA)
10:01PM 42.0669 -83.3292 169° South 280 322 6,500 3,120 Climbing FAA TRACON SMA TRACON (SMA)
10:01PM 42.0444 -83.3178 159° South 280 322 7,300 2,400 Climbing FAA TRACON SMA TRACON (SMA)
10:02PM 42.3210 -82.7068 82° East  Level FlightAware Approximate
10:02PM 42.0217 -83.3058 159° South 288 331 8,100  Level FAA TRACON SMA TRACON (SMA)
10:02PM 42.0008 -83.2753 133° Southeast 291 335 9,200 2,760 Climbing FAA TRACON SMA TRACON (SMA)
10:02PM 41.9986 -83.2406 95° East 300 345 10,000 2,400 Climbing FAA TRACON SMA TRACON (SMA)
10:03PM 42.3432 -82.5439 71° East  Level FlightAware Approximate
10:03PM 42.0133 -83.2042 61° Northeast 290 334 10,800  Level FAA TRACON SMA TRACON (SMA)
10:03PM 42.0292 -83.1744 54° Northeast 320 368 11,400 1,800 Climbing FAA TRACON SMA TRACON (SMA)
10:03PM 42.0417 -83.1414 63° Northeast 339 390 12,000 2,100 Climbing FAA TRACON SMA TRACON (SMA)
10:04PM 42.3659 -82.3861 94° East  Level FlightAware Approximate
10:04PM 42.0594 -83.1008 59° Northeast 333 383 12,800  Level FAA TRACON SMA TRACON (SMA)
10:04PM 42.0750 -83.0683 57° Northeast 337 388 13,400 1,800 Climbing FAA TRACON SMA TRACON (SMA)
10:04PM 42.0908 -83.0353 57° Northeast 340 391 14,000 1,920 Climbing FAA TRACON SMA TRACON (SMA)
10:05PM 42.1111 -82.9931 57° Northeast 346 398 14,700 1,920 Climbing FAA TRACON SMA TRACON (SMA)
10:05PM 42.1278 -82.9586 57° Northeast 351 404 15,300 1,620 Climbing FAA TRACON SMA TRACON (SMA)
10:05PM 42.1447 -82.9233 57° Northeast 360 414 15,800 900 Climbing FAA TRACON SMA TRACON (SMA)
10:06PM 42.1661 -82.8786 57° Northeast 367 422 15,900 120 Climbing FAA TRACON SMA TRACON (SMA)
10:06PM 42.1833 -82.8425 57° Northeast 369 425 15,900 600 Level FAA TRACON SMA TRACON (SMA)
10:06PM 42.2006 -82.8064 57° Northeast 371 427 16,300 1,380 Climbing FAA TRACON SMA TRACON (SMA)
10:07PM 42.2228 -82.7608 57° Northeast 375 432 16,800 840 Climbing FAA TRACON SMA TRACON (SMA)
10:07PM 42.2406 -82.7236 57° Northeast 384 442 16,900 300 Climbing FAA TRACON SMA TRACON (SMA)
10:07PM 42.2589 -82.6847 57° Northeast 393 452 17,000 120 Climbing FAA TRACON SMA TRACON (SMA)
10:08PM 42.2839 -82.6325 57° Northeast 417 480 17,000  Level FAA TRACON SMA TRACON (SMA)
10:08PM 42.3039 -82.5914 57° Northeast 428 493 17,000  Level FAA TRACON SMA TRACON (SMA)
10:08PM 42.3231 -82.5500 58° Northeast 424 488 17,000  Level FAA TRACON SMA TRACON (SMA)
10:09PM 42.3483 -82.4983 56° Northeast 427 491 17,000  Level FAA TRACON SMA TRACON (SMA)
10:09PM 42.3628 -82.4533 67° East 430 495 17,000 300 Level FAA TRACON SMA TRACON (SMA)
10:09PM 42.3661 -82.4044 85° East 431 496 17,200 1,020 Climbing FAA TRACON SMA TRACON (SMA)
10:10PM 42.3650 -82.3422 91° East 431 496 17,700 1,320 Climbing FAA TRACON SMA TRACON (SMA)
10:10PM 42.3625 -82.2928 94° East 428 493 18,100 1,260 Climbing FAA TRACON SMA TRACON (SMA)
10:10PM 42.3608 -82.2433 93° East 430 495 18,600 1,500 Climbing FAA TRACON SMA TRACON (SMA)
10:11PM 42.3583 -82.1811 93° East 429 494 19,100 1,260 Climbing FAA TRACON SMA TRACON (SMA)
10:12PM 42.3475 -81.9850 94° East 429 494 20,600 1,200 Climbing Cleveland Center
10:13PM 42.3408 -81.8219 93° East 438 504 21,900 1,320 Climbing Cleveland Center
10:14PM 42.3342 -81.6561 93° East 444 511 23,300 1,200 Climbing Cleveland Center
10:15PM 42.3275 -81.4931 93° East 444 511 24,300 660 Climbing Cleveland Center
10:16PM 42.3203 -81.3414 94° East 449 517 24,700 420 Climbing Cleveland Center
10:17PM 42.3108 -81.1644 94° East 459 528 25,200 540 Climbing Cleveland Center
10:18PM 42.3011 -80.9847 94° East 470 541 25,800 540 Climbing Cleveland Center
10:19PM 42.2911 -80.8050 94° East 481 554 26,300 480 Climbing Cleveland Center
10:20PM 42.2808 -80.6225 94° East 481 554 26,800 480 Climbing Cleveland Center
10:21PM 42.2706 -80.4344 94° East 487 560 27,300 480 Climbing Cleveland Center
10:22PM 42.2575 -80.2297 95° East 492 566 27,800 480 Climbing Cleveland Center
10:23PM 42.2464 -80.0419 95° East 497 572 28,300 480 Climbing Cleveland Center
10:24PM 42.2369 -79.8569 94° East 504 580 28,800 300 Climbing Cleveland Center
10:25PM 42.2253 -79.6719 95° East 499 574 29,000 60 Climbing Cleveland Center
10:26PM 42.2131 -79.4814 95° East 499 574 29,000  Level Cleveland Center
10:27PM 42.2008 -79.2883 95° East 504 580 29,000  Level Cleveland Center
10:28PM 42.1922 -79.0894 93° East 510 587 29,000  Level Cleveland Center
10:29PM 42.2206 -78.8869 79° East 524 603 29,000  Level Cleveland Center
10:30PM 42.2467 -78.6842 80° East 543 625 29,000  Level Cleveland Center
10:31PM 42.2722 -78.4814 80° East 548 631 29,000  Level Cleveland Center
10:32PM 42.2956 -78.2786 81° East 548 631 29,000  Level Cleveland Center
10:33PM 42.3203 -78.0753 81° East 543 625 29,000  Level Cleveland Center
10:34PM 42.3450 -77.8692 81° East 543 625 29,000  Level Cleveland Center
10:35PM 42.3669 -77.6661 82° East 543 625 29,000  Level Cleveland Center
10:37PM 42.4117 -77.2864 81° East 555 639 29,000  Level Boston Center
10:38PM 42.4344 -77.0911 81° East 542 624 29,000  Level Boston Center
10:39PM 42.4547 -76.8925 82° East 536 617 29,000  Level Boston Center
10:40PM 42.4750 -76.6942 82° East 531 611 29,000  Level Boston Center
10:41PM 42.4969 -76.4928 82° East 536 617 29,000  Level Boston Center
10:42PM 42.5186 -76.2911 82° East 536 617 29,000  Level Boston Center
10:43PM 42.5425 -76.0700 82° East 536 617 29,000  Level Boston Center
10:44PM 42.5608 -75.8794 82° East 536 617 29,000 -360 Level Boston Center
10:45PM 42.5789 -75.6942 82° East 516 594 28,300 -1,260 Descending Boston Center
10:46PM 42.5964 -75.5144 82° East 498 573 26,500 -2,220 Descending Boston Center
10:47PM 42.6136 -75.3406 82° East 481 554 23,900 -1,860 Descending Boston Center
10:48PM 42.6281 -75.1747 83° East 464 534 22,500 -2,460 Descending Boston Center
10:49PM 42.6450 -74.9833 83° East 436 502 18,500 -4,260 Descending Boston Center
10:50PM 42.6561 -74.8511 83° East 415 478 14,600 -4,500 Descending Boston Center
10:50PM 42.6617 -74.7836 84° East 401 461 12,800 -2,700 Descending Boston Center
10:51PM 42.6728 -74.6542 83° East 390 449 11,000 -960 Descending Boston Center
10:52PM 42.6628 -74.5125 95° East 376 433 11,000  Level Boston Center
10:53PM 42.6531 -74.3653 95° East 388 447 11,000 -600 Level Boston Center
10:54PM 42.6986 -74.2481 62° Northeast 353 406 9,900 -1,500 Descending Boston Center
10:55PM 42.7544 -74.1453 53° Northeast 343 395 8,100 -1,800 Descending Boston Center
10:56PM 42.8078 -74.0503 53° Northeast 330 380 6,400 -1,800 Descending Boston Center
10:57PM 42.8550 -73.9581 55° Northeast 309 356 4,500 -1,800 Descending Boston Center
10:58PM 42.8936 -73.8711 59° Northeast 279 321 2,800 -1,260 Descending Boston Center
10:59PM 42.9156 -73.7839 71° East 256 295 2,000 -840 Descending Boston Center